KSPI/SPI METAR and TAF weather

Enter ICAO airport designator
Station Type Date Time Source
KSPI METAR 2019/04/25 12:09 UTC NOAA

KSPI 251209Z 00000KT 2 1/2SM BR SCT012 OVC038 11/11 A2982 RMK AO2 T01060106


Station Type Date Time Source
KSPI Decoded METAR 2019/04/25 12:09 UTC NOAA

ABRAHAM LINCOLN CAPITAL AIRPORT , IL, United States (KSPI) 39-51N 89-41W 181M
Apr 25, 2019 - 08:09 AM EDT / 2019.04.25 1209 UTC
Wind: Calm:0
Visibility: 2 1/2 mile(s):0
Sky conditions: overcast
Weather: mist
Temperature: 51.1 F (10.6 C)
Dew Point: 51.1 F (10.6 C)
Relative Humidity: 100%
Pressure (altimeter): 29.82 in. Hg (1009 hPa)
ob: KSPI 251209Z 00000KT 2 1/2SM BR SCT012 OVC038 11/11 A2982 RMK AO2 T01060106
cycle: 12

Station Type Date Time Source
KSPI TAF 2019/04/25 12:24 UTC NOAA

TAF KSPI 251122Z 2512/2612 VRB03KT 1 1/2SM BR SCT003 BKN250
FM251500 03004KT P6SM OVC007
FM251800 33004KT P6SM BKN030
FM260200 34013G21KT P6SM -SHRA OVC027
FM260500 34014KT P6SM VCSH BKN040

Example: see airport list